Impacts TAF Board
For situational awareness. Not to be used for flight planning purposes.
IDs:

KCNY - Moab/Canyonland Fld, UT, US

Issued at 1736 UTC 08 Aug 2020
Updated at 2120 UTC 08 Aug 2020
Potential Impact None Slight Moderate High
Time2053Z 08/22Z 08/23Z 09/00Z 09/01Z 09/02Z 09/03Z 09/04Z 09/05Z 09/06Z 09/07Z 09/08Z 09/09Z 09/10Z>>
Type OBS PRVL PRVL PRVL PRVL PRVL PRVL PRVL PRVL PRVL PRVL PRVL PRVL PRVL
VIS 10 >6 >6 >6 >6 >6 >6 >6 >6 >6 >6 >6 >6 >6
CIG -- -- -- -- -- -- -- -- -- -- -- -- -- --
Cover CLR SKC SKC SKC SKC FEW FEW FEW FEW FEW FEW FEW FEW FEW
FltCat VFR VFR VFR VFR VFR VFR VFR VFR VFR VFR VFR VFR VFR VFR
WX -- -- -- -- -- -- -- -- -- -- -- -- -- --
WDir VRB 230 230 230 230 200 200 200 200 200 200 200 200 200
WSpd 6 11 11 11 11 6 6 6 6 6 6 6 6 6
WGst 20 19 19 19 19 -- -- -- -- -- -- -- -- --
Raw TAF
KCNY 081736Z 0818/0918 24007KT P6SM SKC
  FM082100 23011G19KT P6SM SKC
  FM090200 20006KT P6SM FEW250


Raw METAR
KCNY 082053Z AUTO VRB06G20KT 10SM CLR 35/M07 A3007 RMK AO2 SLP115 T03501067 57018
KCNY 081953Z AUTO 03007KT 10SM CLR 34/M06 A3009 RMK AO2 SLP119 T03391061
KCNY 081853Z AUTO VRB06KT 10SM CLR 33/M06 A3011 RMK AO2 SLP127 T03281061

METAR Board
Radar Display
Forecast Discussion
For situational awareness. Not to be used for flight planning purposes.